Terminal Aerodrome Forecast
Issued by NWS

Home | Current Version | Previous Version | Text Only | Print | Product List | Glossary On
Versions: 1 2 3 4 5 6 7 8 9 10 11 12 13 14 15
000
FTUS45 KABQ 051100 RRA
TAFFMN
TAF
KFMN 051150Z 0512/0612 09006KT P6SM VCSH SCT015 OVC050
      TEMPO 0512/0516 -RA OVC050
     FM051800 26008KT P6SM VCSH BKN060
     FM052000 27012G22KT P6SM -SHRA OVC050
      TEMPO 0521/0524 VRB20G30KT 6SM TSRA OVC040CB
     FM060200 24010KT P6SM VCSH OVC050
      TEMPO 0608/0612 5SM BR OVC025=

USA.gov is the U.S. government's official web portal to all federal, state and local government web resources and services.